Time;durP1;ratioP1;P1;durP2;ratioP2;P2;SDS_P1;SDS_P2;PMS_P1;PMS_P2;Temp;Humidity;BMP_temperature;BMP_pressure;BME280_temperature;BME280_humidity;BME280_pressure;Samples;Min_cycle;Max_cycle;Signal;HPM_P1;HPM_P2
2022/02/23 00:01:36;;;;;;;4.93;1.20;;;;;;;;;;5072317;28;20081;-52
2022/02/23 00:04:02;;;;;;;3.95;1.08;;;16.80;84.10;;;;;;5072335;28;20123;-51
2022/02/23 00:06:28;;;;;;;3.90;0.85;;;;;;;;;;5072594;28;20418;-50
2022/02/23 00:08:54;;;;;;;8.27;1.73;;;;;;;;;;5072431;28;20041;-50
2022/02/23 00:11:20;;;;;;;3.50;1.10;;;;;;;;;;5072305;28;20080;-51
2022/02/23 00:13:46;;;;;;;2.83;0.90;;;;;;;;;;5072239;28;20491;-49
2022/02/23 00:16:12;;;;;;;5.18;1.20;;;;;;;;;;5072302;28;20031;-51
2022/02/23 00:18:38;;;;;;;5.30;1.45;;;;;;;;;;5072245;28;20032;-52
2022/02/23 00:21:04;;;;;;;3.65;1.27;;;;;;;;;;5072149;28;20028;-51
2022/02/23 00:23:30;;;;;;;2.10;0.82;;;;;;;;;;5072145;28;20039;-50
2022/02/23 00:25:56;;;;;;;5.28;1.10;;;;;;;;;;5072083;28;20064;-51
2022/02/23 00:28:22;;;;;;;3.70;1.20;;;;;;;;;;5071991;28;20098;-49
2022/02/23 00:30:48;;;;;;;3.33;1.17;;;;;;;;;;5072071;28;20103;-50
2022/02/23 00:33:14;;;;;;;4.28;1.40;;;;;;;;;;5072056;28;20509;-51
2022/02/23 00:35:40;;;;;;;5.45;1.45;;;;;;;;;;5072329;28;20029;-51
2022/02/23 00:38:06;;;;;;;8.23;2.47;;;;;;;;;;5072222;28;20407;-50
2022/02/23 00:40:32;;;;;;;7.22;1.50;;;;;;;;;;5071966;28;20028;-50
2022/02/23 00:42:58;;;;;;;3.60;1.13;;;;;;;;;;5071887;28;20035;-51
2022/02/23 00:45:25;;;;;;;5.75;1.23;;;16.70;84.60;;;;;;5072772;28;20032;-49
2022/02/23 00:47:51;;;;;;;5.30;1.05;;;;;;;;;;5075660;28;20032;-51
2022/02/23 00:50:17;;;;;;;3.42;1.00;;;;;;;;;;5075759;28;20024;-50
2022/02/23 00:52:43;;;;;;;4.47;1.20;;;;;;;;;;5075810;28;20025;-50
2022/02/23 00:55:09;;;;;;;5.80;1.40;;;;;;;;;;5075645;28;20034;-50
2022/02/23 00:57:35;;;;;;;5.60;1.17;;;;;;;;;;5075629;28;20021;-53
2022/02/23 01:00:01;;;;;;;4.60;1.23;;;;;;;;;;5075797;28;20204;-50
2022/02/23 01:02:27;;;;;;;5.75;1.80;;;;;;;;;;5075279;28;20048;-51
2022/02/23 01:04:54;;;;;;;3.08;0.93;;;;;;;;;;5075464;28;20056;-50
2022/02/23 01:07:20;;;;;;;4.10;1.13;;;;;;;;;;5075414;28;20028;-50
2022/02/23 01:09:46;;;;;;;4.47;1.30;;;;;;;;;;5075306;28;20498;-51
2022/02/23 01:12:12;;;;;;;3.15;1.25;;;;;;;;;;5075363;28;20024;-51
2022/02/23 01:14:38;;;;;;;4.03;0.80;;;;;;;;;;5075321;28;20494;-50
2022/02/23 01:17:04;;;;;;;3.60;1.17;;;16.50;81.20;;;;;;5075372;28;20025;-50
2022/02/23 01:19:31;;;;;;;3.42;1.02;;;;;;;;;;5075157;28;20028;-50
2022/02/23 01:21:57;;;;;;;4.57;0.95;;;;;;;;;;5075624;28;20049;-51
2022/02/23 01:24:23;;;;;;;3.95;1.20;;;;;;;;;;5075422;28;20028;-50
2022/02/23 01:26:49;;;;;;;4.03;0.98;;;;;;;;;;5075103;28;20029;-50
2022/02/23 01:29:15;;;;;;;3.85;0.90;;;;;;;;;;5075004;28;20043;-50
2022/02/23 01:31:41;;;;;;;4.70;1.02;;;;;;;;;;5075074;28;20119;-50
2022/02/23 01:34:07;;;;;;;4.35;0.98;;;;;;;;;;5074941;28;20032;-50
2022/02/23 01:36:33;;;;;;;2.58;0.93;;;;;;;;;;5074966;28;20467;-52
2022/02/23 01:38:59;;;;;;;3.92;1.13;;;;;;;;;;5075109;28;20075;-52
2022/02/23 01:41:25;;;;;;;3.58;0.80;;;;;;;;;;5074816;28;20103;-51
2022/02/23 01:43:52;;;;;;;5.68;1.38;;;;;;;;;;5074759;28;20033;-52
2022/02/23 01:46:18;;;;;;;5.90;1.13;;;;;;;;;;5074775;28;20386;-51
2022/02/23 01:48:44;;;;;;;3.38;0.93;;;;;;;;;;5074730;28;20036;-51
2022/02/23 01:51:10;;;;;;;5.03;1.38;;;;;;;;;;5074652;28;20052;-51
2022/02/23 01:53:36;;;;;;;3.10;1.08;;;;;;;;;;5074629;28;20024;-49
2022/02/23 01:56:02;;;;;;;4.95;0.95;;;;;;;;;;5074578;28;20082;-50
2022/02/23 01:58:28;;;;;;;3.58;1.00;;;;;;;;;;5073439;28;20445;-51
2022/02/23 02:00:54;;;;;;;5.50;1.35;;;;;;;;;;5074457;28;20033;-50
2022/02/23 02:03:20;;;;;;;5.32;0.95;;;;;;;;;;5074100;28;20040;-50
2022/02/23 02:05:46;;;;;;;5.03;1.05;;;;;;;;;;5074385;28;20036;-50
2022/02/23 02:08:12;;;;;;;7.25;1.05;;;;;;;;;;5074284;28;20039;-51
2022/02/23 02:10:38;;;;;;;4.80;1.48;;;;;;;;;;5074260;28;20078;-50
2022/02/23 02:13:04;;;;;;;3.25;1.13;;;;;;;;;;5074207;28;20078;-49
2022/02/23 02:15:30;;;;;;;4.57;1.08;;;;;;;;;;5074121;28;20024;-50
2022/02/23 02:17:56;;;;;;;6.88;1.30;;;;;;;;;;5074146;28;20029;-50
2022/02/23 02:20:22;;;;;;;3.70;1.58;;;;;;;;;;5074036;28;20036;-48
2022/02/23 02:22:48;;;;;;;5.95;1.48;;;;;;;;;;5074106;28;20471;-50
2022/02/23 02:25:14;;;;;;;4.00;0.85;;;;;;;;;;5074088;28;20052;-49
2022/02/23 02:27:40;;;;;;;2.65;0.93;;;;;;;;;;5073943;28;20024;-50
2022/02/23 02:30:06;;;;;;;5.82;1.60;;;;;;;;;;5073800;28;20048;-52
2022/02/23 02:32:32;;;;;;;3.92;1.50;;;;;;;;;;5074021;28;20043;-51
2022/02/23 02:34:58;;;;;;;6.20;1.10;;;;;;;;;;5073777;28;20456;-50
2022/02/23 02:37:24;;;;;;;2.40;1.13;;;;;;;;;;5073707;28;20052;-50
2022/02/23 02:39:50;;;;;;;3.67;1.00;;;;;;;;;;5073675;28;20044;-49
2022/02/23 02:42:18;;;;;;;3.63;0.90;;;;;;;;;;5073640;28;20032;-50
2022/02/23 02:44:44;;;;;;;4.57;1.00;;;;;;;;;;5073840;28;20032;-49
2022/02/23 02:47:10;;;;;;;2.05;0.82;;;;;;;;;;5073463;28;20474;-50
2022/02/23 02:49:36;;;;;;;2.75;0.80;;;;;;;;;;5073371;28;20046;-51
2022/02/23 02:52:03;;;;;;;3.25;1.23;;;;;;;;;;5073442;28;20088;-50
2022/02/23 02:54:29;;;;;;;3.30;0.90;;;;;;;;;;5073415;28;20076;-50
2022/02/23 02:56:55;;;;;;;3.47;1.15;;;;;;;;;;5073369;28;20391;-50
2022/02/23 02:59:21;;;;;;;6.60;1.45;;;;;;;;;;5073324;28;20039;-49
2022/02/23 03:01:47;;;;;;;4.65;1.30;;;;;;;;;;5073044;28;20071;-52
2022/02/23 03:04:13;;;;;;;5.07;1.20;;;;;;;;;;5073316;28;20033;-50
2022/02/23 03:06:40;;;;;;;2.05;0.82;;;;;;;;;;5073129;28;20029;-50
2022/02/23 03:09:06;;;;;;;2.83;0.88;;;16.10;83.30;;;;;;5072766;28;20037;-50
2022/02/23 03:11:32;;;;;;;5.15;1.20;;;;;;;;;;5072984;28;20024;-50
2022/02/23 03:13:58;;;;;;;3.13;1.02;;;;;;;;;;5072981;28;20032;-50
2022/02/23 03:16:25;;;;;;;4.72;1.30;;;;;;;;;;5073162;28;20024;-50
2022/02/23 03:18:51;;;;;;;4.32;1.10;;;;;;;;;;5073068;28;20034;-49
2022/02/23 03:21:17;;;;;;;2.83;1.13;;;;;;;;;;5072915;28;20395;-71
2022/02/23 03:23:43;;;;;;;3.10;1.00;;;;;;;;;;5072760;28;20082;-71
2022/02/23 03:26:09;;;;;;;4.10;1.13;;;16.10;81.90;;;;;;5072763;28;20048;-71
2022/02/23 03:28:36;;;;;;;2.78;1.00;;;;;;;;;;5072848;28;20050;-71
2022/02/23 03:31:03;;;;;;;3.35;0.98;;;;;;;;;;5072928;28;20033;-71
2022/02/23 03:33:29;;;;;;;3.22;0.80;;;;;;;;;;5072672;28;20025;-71
2022/02/23 03:35:55;;;;;;;4.55;1.08;;;;;;;;;;5072644;28;20077;-71
2022/02/23 03:38:22;;;;;;;4.20;1.10;;;;;;;;;;5072751;28;20033;-71
2022/02/23 03:40:48;;;;;;;4.00;1.10;;;;;;;;;;5072598;28;20032;-71
2022/02/23 03:43:17;;;;;;;5.15;1.23;;;;;;;;;;5072652;28;20029;-71
2022/02/23 03:45:43;;;;;;;3.50;1.20;;;;;;;;;;5072789;28;20024;-71
2022/02/23 03:48:09;;;;;;;5.40;0.90;;;;;;;;;;5072406;28;20029;-71
2022/02/23 03:50:35;;;;;;;3.42;1.08;;;;;;;;;;5072474;28;20082;-70
2022/02/23 03:53:01;;;;;;;4.82;1.20;;;;;;;;;;5072713;28;20104;-70
2022/02/23 03:55:27;;;;;;;3.80;1.67;;;;;;;;;;5072549;28;20552;-70
2022/02/23 03:57:53;;;;;;;3.15;1.10;;;;;;;;;;5072473;28;20140;-71
2022/02/23 04:00:19;;;;;;;8.27;1.05;;;;;;;;;;5072433;28;20020;-71
2022/02/23 04:02:45;;;;;;;4.07;1.00;;;;;;;;;;5072063;28;20048;-71
2022/02/23 04:05:11;;;;;;;3.78;1.00;;;15.90;83.50;;;;;;5072314;28;20029;-71
2022/02/23 04:07:38;;;;;;;4.68;1.35;;;16.00;81.20;;;;;;5072252;28;20047;-70
2022/02/23 04:10:05;;;;;;;3.80;1.10;;;15.90;84.50;;;;;;5072135;28;20068;-71
2022/02/23 04:12:31;;;;;;;5.10;1.40;;;;;;;;;;5072250;28;20016;-70
2022/02/23 04:14:57;;;;;;;6.40;1.38;;;;;;;;;;5072317;28;20387;-70
2022/02/23 04:17:23;;;;;;;5.53;1.20;;;;;;;;;;5072312;28;20020;-70
2022/02/23 04:19:49;;;;;;;3.95;1.10;;;;;;;;;;5072200;28;20039;-70
2022/02/23 04:22:15;;;;;;;3.45;0.90;;;;;;;;;;5076179;28;20036;-70
2022/02/23 04:24:41;;;;;;;3.67;1.10;;;;;;;;;;5076276;28;20037;-70
2022/02/23 04:27:08;;;;;;;2.80;0.80;;;;;;;;;;5076231;28;20028;-70
2022/02/23 04:29:34;;;;;;;4.95;1.00;;;15.90;81.00;;;;;;5076081;28;20112;-70
2022/02/23 04:32:00;;;;;;;2.92;0.95;;;;;;;;;;5076102;28;20532;-70
2022/02/23 04:34:26;;;;;;;6.38;1.83;;;;;;;;;;5076182;28;20290;-71
2022/02/23 04:36:52;;;;;;;6.38;1.80;;;;;;;;;;5075969;28;20098;-71
2022/02/23 04:39:18;;;;;;;2.55;1.20;;;;;;;;;;5076009;28;20028;-71
2022/02/23 04:41:44;;;;;;;3.05;1.10;;;;;;;;;;5075911;28;20131;-70
2022/02/23 04:44:10;;;;;;;2.80;0.82;;;;;;;;;;5075950;28;20047;-70
2022/02/23 04:46:36;;;;;;;3.88;1.50;;;;;;;;;;5075891;28;20486;-71
2022/02/23 04:49:03;;;;;;;5.00;1.05;;;15.80;83.30;;;;;;5075843;28;20441;-70
2022/02/23 04:51:30;;;;;;;4.80;1.27;;;;;;;;;;5075734;28;20024;-70
2022/02/23 04:53:57;;;;;;;3.50;1.13;;;15.80;82.90;;;;;;5075687;28;20070;-70
2022/02/23 04:56:23;;;;;;;4.35;1.05;;;;;;;;;;5075881;28;20021;-70
2022/02/23 04:58:49;;;;;;;2.55;0.88;;;;;;;;;;5075552;28;20037;-70
2022/02/23 05:01:15;;;;;;;4.63;0.98;;;;;;;;;;5075467;28;20036;-70
2022/02/23 05:03:41;;;;;;;7.03;1.00;;;;;;;;;;5075362;28;20048;-70
2022/02/23 05:06:07;;;;;;;2.88;1.08;;;;;;;;;;5075668;28;20028;-70
2022/02/23 05:08:33;;;;;;;4.10;1.15;;;;;;;;;;5075370;28;20028;-70
2022/02/23 05:11:01;;;;;;;5.53;1.17;;;;;;;;;;5075615;28;20041;-70
2022/02/23 05:13:27;;;;;;;5.55;0.93;;;15.80;84.30;;;;;;5075247;28;20060;-70
2022/02/23 05:15:56;;;;;;;3.30;1.02;;;15.70;85.10;;;;;;5075483;28;20051;-70
2022/02/23 05:18:22;;;;;;;3.15;1.00;;;;;;;;;;5075199;28;20726;-70
2022/02/23 05:20:48;;;;;;;3.40;0.98;;;;;;;;;;5075451;28;20029;-70
2022/02/23 05:23:15;;;;;;;3.17;0.98;;;;;;;;;;5075080;28;20564;-70
2022/02/23 05:25:41;;;;;;;5.45;1.20;;;;;;;;;;5075029;28;20021;-71
2022/02/23 05:28:07;;;;;;;3.65;1.08;;;;;;;;;;5074902;28;20033;-70
2022/02/23 05:30:33;;;;;;;5.35;1.20;;;;;;;;;;5075085;28;20036;-70
2022/02/23 05:32:59;;;;;;;2.13;1.13;;;;;;;;;;5075145;28;20067;-70
2022/02/23 05:35:25;;;;;;;5.55;0.90;;;;;;;;;;5074936;28;20077;-70
2022/02/23 05:37:51;;;;;;;6.22;1.30;;;;;;;;;;5074949;28;20028;-70
2022/02/23 05:40:17;;;;;;;3.20;0.90;;;;;;;;;;5074826;28;20031;-70
2022/02/23 05:42:43;;;;;;;3.67;0.90;;;;;;;;;;5075078;28;20104;-70
2022/02/23 05:45:10;;;;;;;3.33;1.00;;;;;;;;;;5074779;28;20051;-70
2022/02/23 05:47:36;;;;;;;3.67;1.25;;;;;;;;;;5074771;28;20024;-70
2022/02/23 05:50:02;;;;;;;4.82;1.13;;;;;;;;;;5074861;28;20048;-70
2022/02/23 05:52:28;;;;;;;5.88;1.73;;;;;;;;;;5074557;28;20032;-70
2022/02/23 05:54:54;;;;;;;4.30;1.30;;;;;;;;;;5074557;28;20024;-69
2022/02/23 05:57:20;;;;;;;5.90;1.52;;;;;;;;;;5074480;28;20036;-70
2022/02/23 05:59:46;;;;;;;3.67;1.20;;;;;;;;;;5073208;28;20471;-70
2022/02/23 06:02:12;;;;;;;6.22;1.38;;;;;;;;;;5074131;28;20044;-70
2022/02/23 06:04:38;;;;;;;3.03;0.90;;;;;;;;;;5074411;28;20028;-70
2022/02/23 06:07:04;;;;;;;7.00;1.40;;;;;;;;;;5074327;28;20040;-70
2022/02/23 06:09:32;;;;;;;4.75;1.10;;;15.60;85.70;;;;;;5074208;28;20115;-70
2022/02/23 06:11:58;;;;;;;4.65;1.58;;;;;;;;;;5074230;28;20025;-70
2022/02/23 06:14:24;;;;;;;3.60;1.20;;;;;;;;;;5074138;28;20033;-70
2022/02/23 06:16:50;;;;;;;2.30;0.80;;;;;;;;;;5074498;28;20027;-70
2022/02/23 06:19:16;;;;;;;3.60;1.05;;;;;;;;;;5074030;28;20024;-70
2022/02/23 06:21:42;;;;;;;5.28;1.10;;;;;;;;;;5074054;28;20256;-71
2022/02/23 06:24:08;;;;;;;2.65;1.40;;;;;;;;;;5074133;28;20091;-70
2022/02/23 06:26:34;;;;;;;6.00;1.50;;;;;;;;;;5074022;28;20021;-71
2022/02/23 06:29:00;;;;;;;3.08;1.05;;;;;;;;;;5073946;28;20115;-70
2022/02/23 06:31:26;;;;;;;5.20;1.27;;;;;;;;;;5073951;28;20104;-70
2022/02/23 06:33:52;;;;;;;7.70;1.75;;;;;;;;;;5073873;28;20463;-70
2022/02/23 06:36:18;;;;;;;4.38;1.50;;;;;;;;;;5073813;28;20021;-70
2022/02/23 06:38:45;;;;;;;3.55;1.27;;;;;;;;;;5074044;28;20024;-70
2022/02/23 06:41:16;;;;;;;5.97;1.40;;;16.10;84.80;;;;;;5073969;28;20383;-70
2022/02/23 06:43:46;;;;;;;5.13;1.48;;;16.00;78.90;;;;;;5073184;28;20041;-70
2022/02/23 06:46:12;;;;;;;2.78;1.27;;;16.10;81.10;;;;;;5073604;28;20028;-70
2022/02/23 06:48:40;;;;;;;10.73;1.73;;;;;;;;;;5073649;28;20037;-70
2022/02/23 06:51:06;;;;;;;6.22;1.27;;;;;;;;;;5073466;28;20025;-70
2022/02/23 06:53:32;;;;;;;4.13;1.38;;;;;;;;;;5073420;28;20064;-71
2022/02/23 06:55:58;;;;;;;6.43;1.45;;;;;;;;;;5073409;28;20028;-71
2022/02/23 06:58:24;;;;;;;5.07;1.85;;;;;;;;;;5073574;28;20032;-74
2022/02/23 07:00:50;;;;;;;5.88;1.60;;;;;;;;;;5073300;28;20024;-75
2022/02/23 07:03:16;;;;;;;4.25;1.30;;;;;;;;;;5073105;28;20153;-74
2022/02/23 07:05:42;;;;;;;4.68;1.40;;;;;;;;;;5073507;28;20174;-75
2022/02/23 07:08:09;;;;;;;3.05;1.23;;;16.00;85.10;;;;;;5073146;28;20060;-75
2022/02/23 07:10:36;;;;;;;4.70;1.40;;;16.00;85.60;;;;;;5073335;28;20364;-75
2022/02/23 07:13:04;;;;;;;3.25;1.33;;;16.00;85.50;;;;;;5073039;28;20107;-75
2022/02/23 07:15:31;;;;;;;5.15;2.10;;;16.10;85.40;;;;;;5073257;28;20029;-74
2022/02/23 07:17:58;;;;;;;5.32;1.90;;;16.00;84.70;;;;;;5073066;28;20021;-75
2022/02/23 07:20:24;;;;;;;4.88;1.40;;;;;;;;;;5073237;28;20379;-76
2022/02/23 07:22:51;;;;;;;5.75;1.50;;;16.00;85.50;;;;;;5072898;28;20025;-76
2022/02/23 07:25:17;;;;;;;6.82;2.00;;;;;;;;;;5072763;28;20033;-76
2022/02/23 07:27:43;;;;;;;5.47;1.38;;;;;;;;;;5072761;28;20059;-75
2022/02/23 07:30:12;;;;;;;5.95;1.50;;;16.00;85.60;;;;;;5072934;28;20048;-77
2022/02/23 07:32:38;;;;;;;5.00;1.38;;;;;;;;;;5072734;28;20028;-77
2022/02/23 07:35:05;;;;;;;7.25;1.50;;;16.00;85.30;;;;;;5073034;28;20440;-75
2022/02/23 07:37:33;;;;;;;3.63;1.45;;;;;;;;;;5072733;28;20031;-76
2022/02/23 07:40:07;;;;;;;4.43;1.30;;;16.00;79.10;;;;;;5071353;28;20038;-74
2022/02/23 07:42:33;;;;;;;5.57;1.30;;;;;;;;;;5072569;28;20032;-75
2022/02/23 07:44:59;;;;;;;5.15;1.52;;;;;;;;;;5072842;28;20024;-70
2022/02/23 07:47:25;;;;;;;3.97;1.10;;;;;;;;;;5072702;28;20109;-73
2022/02/23 07:49:51;;;;;;;5.85;1.85;;;;;;;;;;5072818;28;20474;-74
2022/02/23 07:52:17;;;;;;;8.45;1.40;;;;;;;;;;5072303;28;20573;-75
2022/02/23 07:54:43;;;;;;;4.93;1.23;;;;;;;;;;5071409;28;20111;-75
2022/02/23 07:57:09;;;;;;;3.35;1.30;;;;;;;;;;5072145;28;20021;-74
2022/02/23 07:59:35;;;;;;;5.80;1.10;;;;;;;;;;5072120;28;20127;-74
2022/02/23 08:02:02;;;;;;;9.98;1.70;;;;;;;;;;5071790;28;20534;-74
2022/02/23 08:04:28;;;;;;;6.22;1.25;;;;;;;;;;5072141;28;20467;-75
2022/02/23 08:06:55;;;;;;;5.20;1.30;;;;;;;;;;5071896;28;20025;-73
2022/02/23 08:09:21;;;;;;;4.07;1.10;;;;;;;;;;5071903;28;20040;-73
2022/02/23 08:11:47;;;;;;;3.10;1.00;;;;;;;;;;5071836;28;20024;-73
2022/02/23 08:14:13;;;;;;;3.42;1.17;;;;;;;;;;5070731;28;20193;-75
2022/02/23 08:19:31;;;;;;;4.65;1.40;;;16.40;84.50;;;;;;5072364;28;20035;-74
2022/02/23 08:21:59;;;;;;;4.80;1.48;;;16.40;84.60;;;;;;5072140;28;20103;-75
2022/02/23 08:24:27;;;;;;;2.95;1.48;;;16.40;82.00;;;;;;5071855;28;20063;-75
2022/02/23 08:26:53;;;;;;;4.25;1.25;;;;;;;;;;5071852;28;20031;-75
2022/02/23 08:29:19;;;;;;;2.60;1.15;;;;;;;;;;5072105;28;20044;-74
2022/02/23 08:31:45;;;;;;;4.07;1.52;;;;;;;;;;5072159;28;20027;-74
2022/02/23 08:34:11;;;;;;;4.20;1.27;;;;;;;;;;5072161;28;20032;-74
2022/02/23 08:36:37;;;;;;;5.82;1.27;;;;;;;;;;5072078;28;20024;-75
2022/02/23 08:39:04;;;;;;;5.97;1.73;;;16.50;84.50;;;;;;5072084;28;20035;-73
2022/02/23 08:41:30;;;;;;;4.28;1.20;;;;;;;;;;5072047;28;20339;-69
2022/02/23 08:43:56;;;;;;;4.85;1.13;;;;;;;;;;5071895;28;20032;-70
2022/02/23 08:46:22;;;;;;;3.75;1.40;;;;;;;;;;5071912;28;20028;-69
2022/02/23 08:48:48;;;;;;;6.10;1.48;;;;;;;;;;5071830;28;20033;-70
2022/02/23 08:51:14;;;;;;;6.90;1.35;;;;;;;;;;5071992;28;20060;-71
2022/02/23 08:53:40;;;;;;;4.78;1.40;;;;;;;;;;5071955;28;20438;-71
2022/02/23 08:56:06;;;;;;;2.88;1.30;;;;;;;;;;5071737;28;20056;-70
2022/02/23 08:58:32;;;;;;;3.90;2.00;;;;;;;;;;5071825;28;20073;-70
2022/02/23 09:00:58;;;;;;;4.68;1.58;;;;;;;;;;5071709;28;20017;-71
2022/02/23 09:03:23;;;;;;;7.22;1.70;;;;;;;;;;5071559;28;20418;-71
2022/02/23 09:05:50;;;;;;;5.97;1.85;;;;;;;;;;5071747;28;20032;-71
2022/02/23 09:08:16;;;;;;;5.07;1.33;;;;;;;;;;5075371;28;20033;-71
2022/02/23 09:10:42;;;;;;;5.05;1.30;;;;;;;;;;5075507;28;20410;-50
2022/02/23 09:13:08;;;;;;;5.38;1.60;;;;;;;;;;5075370;28;20535;-51
2022/02/23 09:15:36;;;;;;;5.03;1.77;;;17.20;80.70;;;;;;5075249;28;20032;-50
2022/02/23 09:18:03;;;;;;;5.20;1.60;;;17.20;83.30;;;;;;5075280;28;20032;-52
2022/02/23 09:20:29;;;;;;;7.30;1.52;;;;;;;;;;5075260;28;20433;-51
2022/02/23 09:22:55;;;;;;;4.47;1.40;;;;;;;;;;5075162;28;20447;-51
2022/02/23 09:25:21;;;;;;;5.65;2.15;;;;;;;;;;5075177;28;20394;-49
2022/02/23 09:27:48;;;;;;;7.20;1.63;;;;;;;;;;5075141;28;20025;-50
2022/02/23 09:30:14;;;;;;;5.43;1.50;;;;;;;;;;5074838;28;20036;-50
2022/02/23 09:32:41;;;;;;;5.38;1.65;;;;;;;;;;5074964;28;20044;-50
2022/02/23 09:35:10;;;;;;;6.13;1.20;;;17.20;83.20;;;;;;5075118;28;20447;-51
2022/02/23 09:37:36;;;;;;;5.47;1.42;;;;;;;;;;5075006;28;20025;-49
2022/02/23 09:40:05;;;;;;;2.92;1.38;;;17.50;85.00;;;;;;5074847;28;20062;-49
2022/02/23 09:42:31;;;;;;;5.15;1.52;;;;;;;;;;5074999;28;20396;-49
2022/02/23 09:45:01;;;;;;;5.60;1.35;;;17.60;78.70;;;;;;5074908;28;20035;-51
2022/02/23 09:47:32;;;;;;;4.32;1.45;;;;;;;;;;5074854;28;20111;-51
2022/02/23 09:49:58;;;;;;;4.03;1.33;;;;;;;;;;5074844;28;20045;-51
2022/02/23 09:52:24;;;;;;;4.75;1.63;;;;;;;;;;5074690;28;20070;-49
2022/02/23 09:54:57;;;;;;;5.18;1.58;;;17.70;78.40;;;;;;5074583;28;20070;-50
2022/02/23 09:57:23;;;;;;;5.95;1.50;;;;;;;;;;5074558;28;20103;-53
2022/02/23 09:59:49;;;;;;;2.80;1.10;;;;;;;;;;5074570;28;20033;-53
2022/02/23 10:02:15;;;;;;;3.40;1.17;;;;;;;;;;5074213;28;20037;-52
2022/02/23 10:04:41;;;;;;;3.85;1.35;;;;;;;;;;5074840;28;20033;-52
2022/02/23 10:07:08;;;;;;;6.78;1.30;;;17.70;83.70;;;;;;5074393;28;20404;-55
2022/02/23 10:09:49;;;;;;;8.15;1.70;;;17.90;77.60;;;;;;5074178;28;20047;-52
2022/02/23 10:12:20;;;;;;;8.73;1.50;;;17.90;77.50;;;;;;5074194;28;20094;-51
2022/02/23 10:14:47;;;;;;;4.40;1.40;;;18.00;83.10;;;;;;5074116;28;20052;-51
2022/02/23 10:17:13;;;;;;;3.38;1.25;;;;;;;;;;5074101;28;20076;-50
2022/02/23 10:19:50;;;;;;;2.63;1.30;;;18.00;78.00;;;;;;5073285;28;20099;-50
2022/02/23 10:22:21;;;;;;;2.88;1.05;;;18.10;84.20;;;;;;5073942;28;20084;-54
2022/02/23 10:24:47;;;;;;;6.10;1.75;;;;;;;;;;5073903;28;20360;-50
2022/02/23 10:27:14;;;;;;;7.05;1.48;;;18.10;85.00;;;;;;5073914;28;20089;-51
2022/02/23 10:29:56;;;;;;;7.35;1.85;;;18.20;78.90;;;;;;5073818;28;20395;-49
2022/02/23 10:32:25;;;;;;;9.85;3.35;;;18.20;79.90;;;;;;5073646;28;20028;-50
2022/02/23 10:34:59;;;;;;;13.73;2.58;;;18.30;86.00;;;;;;5074223;28;20021;-50
2022/02/23 10:37:26;;;;;;;3.85;1.30;;;;;;;;;;5073470;28;20082;-50
2022/02/23 10:39:54;;;;;;;9.48;2.40;;;18.30;85.30;;;;;;5073519;28;20030;-53
2022/02/23 10:42:21;;;;;;;3.78;1.75;;;18.40;84.80;;;;;;5073577;28;20039;-49
2022/02/23 10:44:52;;;;;;;8.52;2.05;;;18.50;84.40;;;;;;5073517;28;20554;-53
2022/02/23 10:47:29;;;;;;;4.80;1.40;;;18.50;77.10;;;;;;5073576;28;20089;-54
2022/02/23 10:50:04;;;;;;;7.00;1.85;;;18.60;77.30;;;;;;5073635;28;20074;-49
2022/02/23 10:52:39;;;;;;;7.00;1.88;;;18.60;83.40;;;;;;5073468;28;20017;-48
2022/02/23 10:55:15;;;;;;;5.00;1.58;;;18.60;77.40;;;;;;5073723;28;20492;-50
2022/02/23 10:57:46;;;;;;;3.95;1.75;;;18.60;77.40;;;;;;5073364;28;20144;-52
2022/02/23 11:00:21;;;;;;;5.22;1.33;;;18.50;83.50;;;;;;5073356;28;20025;-50
2022/02/23 11:02:47;;;;;;;4.72;1.40;;;;;;;;;;5072839;28;20036;-49
2022/02/23 11:05:14;;;;;;;4.53;1.50;;;18.50;81.40;;;;;;5072998;28;20540;-52
2022/02/23 11:07:43;;;;;;;5.55;1.45;;;;;;;;;;5073120;28;20029;-51
2022/02/23 11:10:13;;;;;;;6.30;1.63;;;18.50;80.80;;;;;;5072821;28;20477;-51
2022/02/23 11:12:39;;;;;;;3.40;1.30;;;;;;;;;;5072862;28;20112;-52
2022/02/23 11:15:05;;;;;;;4.18;1.63;;;;;;;;;;5072875;28;20059;-54
2022/02/23 11:17:32;;;;;;;5.20;1.40;;;18.40;82.50;;;;;;5072891;28;20029;-50
2022/02/23 11:19:58;;;;;;;4.93;1.52;;;;;;;;;;5072841;28;20516;-72
2022/02/23 11:22:24;;;;;;;3.38;1.42;;;;;;;;;;5072687;28;20056;-72
2022/02/23 11:24:50;;;;;;;6.57;1.55;;;;;;;;;;5072647;28;20025;-72
2022/02/23 11:27:21;;;;;;;5.03;1.75;;;18.40;83.50;;;;;;5072674;28;20029;-71
2022/02/23 11:30:05;;;;;;;4.35;1.20;;;18.40;77.40;;;;;;5072470;28;20367;-71
2022/02/23 11:32:42;;;;;;;5.07;1.63;;;18.30;83.30;;;;;;5072774;28;20036;-70
2022/02/23 11:35:11;;;;;;;4.55;1.40;;;18.30;80.30;;;;;;5073075;28;20031;-72
2022/02/23 11:37:38;;;;;;;3.70;1.42;;;18.30;82.50;;;;;;5072896;28;20513;-71
2022/02/23 11:40:06;;;;;;;3.83;1.15;;;18.30;82.70;;;;;;5072941;28;20056;-72
2022/02/23 11:42:37;;;;;;;3.75;1.77;;;18.30;77.60;;;;;;5072597;28;20111;-73
2022/02/23 11:45:13;;;;;;;5.30;1.08;;;18.30;77.70;;;;;;5072575;28;20024;-73
2022/02/23 11:47:47;;;;;;;3.35;1.17;;;18.30;77.70;;;;;;5072690;28;20027;-73
2022/02/23 11:50:22;;;;;;;3.10;1.20;;;18.40;84.00;;;;;;5072403;28;20486;-74
2022/02/23 11:52:50;;;;;;;3.53;1.65;;;18.30;81.10;;;;;;5072504;28;20475;-72
2022/02/23 11:55:16;;;;;;;5.65;1.63;;;;;;;;;;5072529;28;20032;-72
2022/02/23 11:57:42;;;;;;;2.90;0.95;;;;;;;;;;5072396;28;20058;-73
2022/02/23 12:00:17;;;;;;;4.25;1.08;;;18.70;78.60;;;;;;5072674;28;20029;-72
2022/02/23 12:02:58;;;;;;;4.97;1.08;;;18.20;84.30;;;;;;5071992;28;20067;-74
2022/02/23 12:05:41;;;;;;;4.18;1.20;;;18.30;78.20;;;;;;5072360;28;20502;-74
2022/02/23 12:08:32;;;;;;;2.75;1.17;;;18.20;84.30;;;;;;5072247;28;20027;-74
2022/02/23 12:10:59;;;;;;;2.35;0.90;;;;;;;;;;5072206;28;20385;-73
2022/02/23 12:13:35;;;;;;;3.60;1.42;;;18.20;84.30;;;;;;5072773;28;20078;-73
2022/02/23 12:16:24;;;;;;;3.30;1.52;;;18.20;78.30;;;;;;5072527;28;20017;-75
2022/02/23 12:18:51;;;;;;;3.45;1.27;;;18.20;84.60;;;;;;5072191;28;20024;-74
2022/02/23 12:21:18;;;;;;;2.85;1.35;;;18.20;83.70;;;;;;5072175;28;20505;-73
2022/02/23 12:23:48;;;;;;;3.35;1.40;;;18.10;78.60;;;;;;5071963;28;20025;-73
2022/02/23 12:26:20;;;;;;;3.05;1.27;;;18.10;84.70;;;;;;5071939;28;20037;-72
2022/02/23 12:28:47;;;;;;;2.88;1.33;;;18.10;84.20;;;;;;5071918;28;20398;-73
2022/02/23 12:31:16;;;;;;;4.00;1.88;;;18.10;85.50;;;;;;5072407;28;20028;-72
2022/02/23 12:33:43;;;;;;;3.78;1.30;;;18.10;85.90;;;;;;5072388;28;20048;-73
2022/02/23 12:36:10;;;;;;;4.85;1.38;;;18.10;86.10;;;;;;5072025;28;20025;-69
2022/02/23 12:38:40;;;;;;;3.97;1.40;;;18.10;86.50;;;;;;5072007;28;20032;-73
2022/02/23 12:41:11;;;;;;;4.47;1.20;;;;;;;;;;5072654;28;20379;-73
2022/02/23 12:43:37;;;;;;;5.43;1.45;;;18.00;86.30;;;;;;5076105;28;20028;-72
2022/02/23 12:46:04;;;;;;;3.55;1.00;;;;;;;;;;5075808;28;20104;-73
2022/02/23 12:48:33;;;;;;;3.63;1.08;;;18.10;86.40;;;;;;5075869;28;20032;-71
2022/02/23 12:51:08;;;;;;;6.05;1.40;;;18.00;81.50;;;;;;5075834;28;20373;-72
2022/02/23 12:53:43;;;;;;;4.57;1.25;;;18.10;88.00;;;;;;5075698;28;20031;-72
2022/02/23 12:56:26;;;;;;;5.10;1.50;;;18.10;82.00;;;;;;5075747;28;20039;-73
2022/02/23 12:59:02;;;;;;;3.00;1.15;;;18.00;82.50;;;;;;5075483;28;20154;-73
2022/02/23 13:01:35;;;;;;;5.25;1.08;;;18.00;88.40;;;;;;5075858;28;20032;-73
2022/02/23 13:04:06;;;;;;;2.85;1.05;;;18.00;89.00;;;;;;5075396;28;20078;-74
2022/02/23 13:06:35;;;;;;;4.70;1.00;;;17.90;89.10;;;;;;5075595;28;20155;-76
2022/02/23 13:09:05;;;;;;;3.25;1.05;;;17.90;89.40;;;;;;5075685;28;20020;-73
2022/02/23 13:11:43;;;;;;;4.00;1.37;;;17.90;83.80;;;;;;5075454;28;20037;-72
2022/02/23 13:14:11;;;;;;;7.03;1.65;;;17.80;89.60;;;;;;5075665;28;20036;-72
2022/02/23 13:16:40;;;;;;;2.92;1.23;;;17.90;89.80;;;;;;5075320;28;20032;-73
2022/02/23 13:19:20;;;;;;;3.63;0.93;;;17.90;89.70;;;;;;5074986;28;20395;-73
2022/02/23 13:22:00;;;;;;;5.50;1.10;;;17.80;89.90;;;;;;5075097;28;20470;-74
2022/02/23 13:24:35;;;;;;;3.28;0.68;;;17.90;83.80;;;;;;5075261;28;20020;-73
2022/02/23 13:27:22;;;;;;;4.47;1.30;;;17.90;84.00;;;;;;5075409;28;20031;-75
2022/02/23 13:29:53;;;;;;;2.47;0.77;;;17.90;90.00;;;;;;5074963;28;20097;-75
2022/02/23 13:32:21;;;;;;;2.92;1.08;;;17.90;86.70;;;;;;5074983;28;20107;-73
2022/02/23 13:34:56;;;;;;;2.90;0.93;;;17.90;84.30;;;;;;5074727;28;20062;-74
2022/02/23 13:37:30;;;;;;;2.05;0.90;;;17.90;84.40;;;;;;5074509;28;20276;-73
2022/02/23 13:40:00;;;;;;;3.53;1.00;;;17.80;90.00;;;;;;5074967;28;20020;-72
2022/02/23 13:42:28;;;;;;;3.25;1.17;;;17.80;84.30;;;;;;5074809;28;20020;-72
2022/02/23 13:44:55;;;;;;;5.05;1.10;;;;;;;;;;5074974;28;20033;-74
2022/02/23 13:47:26;;;;;;;3.97;1.25;;;17.80;90.00;;;;;;5075295;28;20020;-73
2022/02/23 13:50:05;;;;;;;3.13;1.00;;;17.80;84.40;;;;;;5074679;28;20029;-72
2022/02/23 13:52:43;;;;;;;5.57;0.93;;;17.80;90.40;;;;;;5073737;28;20036;-70
2022/02/23 13:55:18;;;;;;;2.55;1.05;;;17.80;90.30;;;;;;5074212;28;20025;-70
2022/02/23 13:57:52;;;;;;;3.13;1.08;;;17.80;90.40;;;;;;5074512;28;20024;-69
2022/02/23 14:00:37;;;;;;;2.60;1.05;;;17.80;85.00;;;;;;5074176;28;20032;-70
2022/02/23 14:03:09;;;;;;;2.33;0.80;;;17.80;85.10;;;;;;5074038;28;20044;-69
2022/02/23 14:05:37;;;;;;;5.15;1.20;;;17.70;90.50;;;;;;5074557;28;20020;-70